Time;durP1;ratioP1;P1;durP2;ratioP2;P2;SDS_P1;SDS_P2;PMS_P1;PMS_P2;Temp;Humidity;BMP_temperature;BMP_pressure;BME280_temperature;BME280_humidity;BME280_pressure;Samples;Min_cycle;Max_cycle;Signal;HPM_P1;HPM_P2
2022/12/28 00:01:49;;;;;;;41.53;38.20;;;;;;;5.29;100.00;101292.63;5032731;28;20462;-48
2022/12/28 00:04:17;;;;;;;40.40;37.43;;;;;;;5.33;100.00;101290.53;5032348;28;20441;-49
2022/12/28 00:06:46;;;;;;;42.43;39.20;;;;;;;5.32;100.00;101284.41;5032418;28;20463;-51
2022/12/28 00:09:15;;;;;;;41.43;38.00;;;;;;;5.35;100.00;101276.16;5031914;28;20455;-47
2022/12/28 00:11:42;;;;;;;41.17;37.90;;;;;;;5.36;100.00;101272.53;5032752;28;20802;-46
2022/12/28 00:14:10;;;;;;;41.27;38.27;;;;;;;5.36;100.00;101269.91;5031813;28;20471;-51
2022/12/28 00:16:39;;;;;;;40.63;37.10;;;;;;;5.34;100.00;101271.88;5032258;28;20494;-50
2022/12/28 00:19:11;;;;;;;42.00;39.00;;;;;;;5.34;100.00;101257.81;5032027;28;20495;-46
2022/12/28 00:21:38;;;;;;;42.70;39.00;;;;;;;5.32;100.00;101265.03;5032257;28;20458;-49
2022/12/28 00:24:07;;;;;;;39.70;36.80;;;;;;;5.34;100.00;101257.81;5032229;28;20432;-48
2022/12/28 00:26:36;;;;;;;40.13;37.00;;;;;;;5.33;100.00;101254.34;5032362;28;20968;-48
2022/12/28 00:29:04;;;;;;;40.60;37.50;;;;;;;5.33;100.00;101240.28;5031753;28;20896;-51
2022/12/28 00:31:33;;;;;;;40.23;36.73;;;;;;;5.33;100.00;101243.75;5032155;28;20428;-48
2022/12/28 00:34:01;;;;;;;38.13;35.07;;;;;;;5.28;100.00;101230.16;5031663;28;20567;-48
2022/12/28 00:36:28;;;;;;;38.90;35.87;;;;;;;5.27;100.00;101217.91;5030845;28;20482;-49
2022/12/28 00:39:16;;;;;;;39.97;36.57;;;;;;;5.26;100.00;101210.94;5012947;28;20808;-49
2022/12/28 00:41:45;;;;;;;38.63;35.73;;;;;;;5.26;100.00;101212.75;5012174;28;20437;-50
2022/12/28 00:44:13;;;;;;;38.50;35.80;;;;;;;5.24;100.00;101210.28;5012029;28;20448;-49
2022/12/28 00:46:41;;;;;;;40.20;37.00;;;;;;;5.24;100.00;101201.50;5012113;28;20453;-50
2022/12/28 00:49:09;;;;;;;41.60;38.00;;;;;;;5.21;100.00;101189.44;5011739;28;20467;-49
2022/12/28 00:51:36;;;;;;;40.97;37.40;;;;;;;5.20;100.00;101192.22;5012229;28;20437;-47
2022/12/28 00:54:04;;;;;;;42.10;38.70;;;;;;;5.21;100.00;101191.25;5011812;28;20550;-48
2022/12/28 00:56:31;;;;;;;40.23;36.63;;;;;;;5.20;100.00;101181.63;5012096;28;20878;-49
2022/12/28 00:59:00;;;;;;;40.73;37.43;;;;;;;5.23;100.00;101186.63;5011488;28;20445;-49
2022/12/28 01:01:29;;;;;;;39.83;36.53;;;;;;;5.20;100.00;101168.41;5012201;28;20433;-47
2022/12/28 01:03:57;;;;;;;39.83;36.67;;;;;;;5.23;100.00;101176.03;5011902;28;20444;-49
2022/12/28 01:06:25;;;;;;;40.70;37.30;;;;;;;5.21;100.00;101159.50;5012005;28;20434;-48
2022/12/28 01:08:54;;;;;;;39.10;36.20;;;;;;;5.19;100.00;101164.13;5011431;28;20451;-49
2022/12/28 01:11:24;;;;;;;38.00;35.30;;;;;;;5.19;100.00;101151.75;5011963;28;20437;-48
2022/12/28 01:13:53;;;;;;;38.47;35.60;;;;;;;5.20;100.00;101158.66;5011965;28;20476;-48
2022/12/28 01:16:24;;;;;;;37.80;34.70;;;;;;;5.20;100.00;101148.09;5011683;28;20938;-48
2022/12/28 01:18:53;;;;;;;39.30;36.23;;;;;;;5.21;100.00;101146.28;5011610;28;20826;-49
2022/12/28 01:21:24;;;;;;;39.93;36.80;;;;;;;5.19;100.00;101135.88;5011893;28;20433;-49
2022/12/28 01:23:55;;;;;;;38.73;35.73;;;;;;;5.19;100.00;101146.47;5011724;28;20425;-47
2022/12/28 01:26:23;;;;;;;38.40;35.47;;;;;;;5.21;100.00;101130.44;5013993;28;20436;-50
2022/12/28 01:28:51;;;;;;;38.20;34.93;;;;;;;5.21;100.00;101127.78;5015335;28;20429;-50
2022/12/28 01:31:20;;;;;;;38.50;35.67;;;;;;;5.17;100.00;101118.50;5015827;28;20433;-47
2022/12/28 01:33:50;;;;;;;37.90;35.27;;;;;;;5.21;100.00;101128.63;5015436;28;20512;-51
2022/12/28 01:36:21;;;;;;;36.70;34.20;;;;;;;5.21;100.00;101117.22;5015307;28;20440;-48
2022/12/28 01:38:52;;;;;;;37.80;34.87;;;;;;;5.22;100.00;101110.94;5020903;28;20507;-48
2022/12/28 01:41:20;;;;;;;37.00;34.10;;;;;;;5.19;100.00;101105.97;5035340;28;20436;-48
2022/12/28 01:44:26;;;;;;;35.87;33.33;;;;;;;5.21;100.00;101098.69;5035290;28;20438;-49
2022/12/28 01:47:00;;;;;;;35.43;33.10;;;;;;;5.18;100.00;101097.19;5034791;28;20452;-49
2022/12/28 01:49:32;;;;;;;36.40;33.83;;;;;;;5.19;100.00;101082.16;5034870;28;20467;-51
2022/12/28 01:52:04;;;;;;;34.47;32.07;;;;;;;5.20;100.00;101076.72;5035214;28;20436;-48
2022/12/28 01:54:37;;;;;;;32.80;30.70;;;;;;;5.17;100.00;101071.72;5034761;28;20472;-48
2022/12/28 01:57:05;;;;;;;33.97;31.50;;;;;;;5.18;100.00;101069.91;5035044;28;20447;-47
2022/12/28 01:59:37;;;;;;;33.60;31.53;;;;;;;5.16;100.00;101063.97;5034635;28;20494;-49
2022/12/28 02:02:06;;;;;;;32.90;30.40;;;;;;;5.16;100.00;101062.16;5034883;28;20428;-48
2022/12/28 02:04:34;;;;;;;33.77;31.23;;;;;;;5.14;100.00;101052.72;5034833;28;20436;-49
2022/12/28 02:07:02;;;;;;;32.60;30.40;;;;;;;5.10;100.00;101051.38;5034752;28;20463;-50
2022/12/28 02:09:36;;;;;;;32.57;30.30;;;;;;;5.12;100.00;101044.94;5034323;28;20470;-49
2022/12/28 02:12:06;;;;;;;29.80;27.87;;;;;;;5.11;100.00;101040.63;5035115;28;20435;-49
2022/12/28 02:14:34;;;;;;;31.77;29.83;;;;;;;5.09;100.00;101047.88;5034592;28;20841;-50
2022/12/28 02:17:02;;;;;;;31.27;29.37;;;;;;;5.05;100.00;101029.84;5034545;28;20475;-49
2022/12/28 02:19:37;;;;;;;30.53;28.77;;;;;;;5.08;100.00;101029.56;5034190;28;20471;-49
2022/12/28 02:22:28;;;;;;;33.27;30.30;;;;;;;5.06;100.00;101027.03;5034501;28;20432;-50
2022/12/28 02:25:13;;;;;;;29.27;27.43;;;;;;;5.03;100.00;101022.06;5034223;28;20933;-48
2022/12/28 02:27:54;;;;;;;30.37;27.93;;;;;;;5.02;100.00;101018.59;5034529;28;20462;-47
2022/12/28 02:30:23;;;;;;;29.67;27.97;;;;;;;4.98;100.00;101004.03;5034067;28;20463;-48
2022/12/28 02:32:59;;;;;;;30.33;28.70;;;;;;;5.00;100.00;101009.16;5034132;28;20436;-50
2022/12/28 02:35:34;;;;;;;30.40;28.43;;;;;;;4.97;100.00;101002.38;5034209;28;20510;-48
2022/12/28 02:38:07;;;;;;;29.70;27.80;;;;;;;4.96;100.00;100982.19;5028386;28;20444;-48
2022/12/28 02:40:41;;;;;;;29.80;27.90;;;;;;;4.96;100.00;100979.56;5029127;28;21000;-48
2022/12/28 02:43:08;;;;;;;28.73;27.13;;;;;;;4.92;100.00;100957.09;5034037;28;20435;-46
2022/12/28 02:51:31;;;;;;;30.57;28.87;;;;;;;4.89;100.00;100946.00;5014089;28;20445;-48
2022/12/28 02:56:06;;;;;;;29.90;28.07;;;;;;;4.86;100.00;100939.22;5014074;28;20437;-48
2022/12/28 02:57:17;;;;;;;30.63;28.87;;;;;;;4.88;100.00;100937.22;5014051;28;20803;-49
2022/12/28 02:59:59;;;;;;;31.60;29.80;;;;;;;4.88;100.00;100920.53;5022639;28;20468;-48
2022/12/28 03:02:41;;;;;;;31.33;29.10;;;;;;;4.88;100.00;100921.38;5033812;28;20428;-51
2022/12/28 03:05:14;;;;;;;31.40;29.60;;;;;;;4.86;100.00;100918.06;5033568;28;20432;-47
2022/12/28 03:10:46;;;;;;;29.77;28.27;;;;;;;4.81;100.00;100904.47;5033166;28;21031;-46
2022/12/28 03:16:08;;;;;;;31.10;29.30;;;;;;;4.77;100.00;100889.94;5033252;28;20471;-48
2022/12/28 03:32:38;;;;;;;31.33;29.23;;;;;;;4.72;100.00;100836.72;5033232;28;20546;-50
2022/12/28 03:35:08;;;;;;;33.13;31.17;;;;;;;4.71;100.00;100845.66;5032733;28;20471;-49
2022/12/28 03:37:41;;;;;;;32.37;30.27;;;;;;;4.72;100.00;100825.34;5029815;28;20980;-47
2022/12/28 03:40:21;;;;;;;31.97;30.20;;;;;;;4.73;100.00;100817.25;5024310;28;20460;-48
2022/12/28 03:45:41;;;;;;;31.40;29.80;;;;;;;4.73;100.00;100797.94;5032634;28;20878;-46
2022/12/28 03:48:15;;;;;;;33.43;31.43;;;;;;;4.73;100.00;100784.72;5032262;28;20448;-48
2022/12/28 03:50:48;;;;;;;32.67;30.63;;;;;;;4.73;100.00;100782.06;5032269;28;20482;-47
2022/12/28 03:53:16;;;;;;;32.47;30.67;;;;;;;4.73;100.00;100784.72;5032757;28;20926;-50
2022/12/28 03:55:44;;;;;;;31.80;29.90;;;;;;;4.73;100.00;100779.44;5032509;28;20474;-48
2022/12/28 03:58:12;;;;;;;32.67;30.83;;;;;;;4.72;100.00;100788.38;5032519;28;20460;-48
2022/12/28 04:00:39;;;;;;;31.80;29.80;;;;;;;4.72;100.00;100786.53;5032320;28;20495;-49
2022/12/28 04:03:07;;;;;;;32.53;30.80;;;;;;;4.68;100.00;100734.19;5032868;28;20845;-49
2022/12/28 04:05:34;;;;;;;33.33;31.07;;;;;;;4.67;100.00;100756.28;5032504;28;20562;-48
2022/12/28 04:08:04;;;;;;;32.53;30.40;;;;;;;4.68;100.00;100752.69;5032563;28;20816;-49
2022/12/28 04:10:31;;;;;;;32.63;30.47;;;;;;;4.69;100.00;100755.16;5032033;28;20464;-49
2022/12/28 04:12:59;;;;;;;34.13;31.70;;;;;;;4.67;100.00;100730.72;5032365;28;20973;-48
2022/12/28 04:15:26;;;;;;;32.47;30.37;;;;;;;4.68;100.00;100716.53;5032403;28;20472;-51
2022/12/28 04:17:54;;;;;;;32.97;31.10;;;;;;;4.67;100.00;100725.44;5032297;28;20472;-48
2022/12/28 04:20:22;;;;;;;33.13;30.63;;;;;;;4.66;100.00;100721.13;5031966;28;20463;-48
2022/12/28 04:22:49;;;;;;;34.17;31.67;;;;;;;4.68;100.00;100716.53;5032262;28;20432;-51
2022/12/28 04:25:18;;;;;;;33.97;31.60;;;;;;;4.69;100.00;100697.03;5031958;28;20439;-52
2022/12/28 04:27:46;;;;;;;32.97;30.73;;;;;;;4.68;100.00;100692.75;5032189;28;20460;-49
2022/12/28 04:30:14;;;;;;;33.03;31.03;;;;;;;4.67;100.00;100700.81;5031767;28;20836;-49
2022/12/28 04:32:41;;;;;;;33.27;31.30;;;;;;;4.66;100.00;100699.19;5032043;28;20999;-49
2022/12/28 04:35:09;;;;;;;32.87;30.27;;;;;;;4.66;100.00;100696.56;5031862;28;20480;-52
2022/12/28 04:37:37;;;;;;;33.20;31.20;;;;;;;4.66;100.00;100685.97;5028796;28;20458;-52
2022/12/28 04:40:06;;;;;;;34.87;32.67;;;;;;;4.67;100.00;100682.34;5023412;28;20514;-50
2022/12/28 04:42:34;;;;;;;33.20;31.20;;;;;;;4.65;100.00;100676.41;5032148;28;20443;-49
2022/12/28 04:45:02;;;;;;;34.37;32.17;;;;;;;4.65;100.00;100679.03;5031802;28;20436;-49
2022/12/28 04:47:30;;;;;;;32.60;30.60;;;;;;;4.65;100.00;100658.75;5031923;28;20456;-47
2022/12/28 04:49:57;;;;;;;34.13;32.03;;;;;;;4.66;100.00;100663.00;5031501;28;21045;-52
2022/12/28 04:52:25;;;;;;;33.33;31.20;;;;;;;4.64;100.00;100654.44;5031682;28;20976;-50
2022/12/28 04:54:53;;;;;;;34.17;31.97;;;;;;;4.65;100.00;100640.25;5031668;28;20436;-50
2022/12/28 04:57:20;;;;;;;35.00;32.27;;;;;;;4.64;100.00;100656.25;5031631;28;20969;-49
2022/12/28 04:59:49;;;;;;;34.07;31.77;;;;;;;4.64;100.00;100651.78;5031365;28;20464;-49
2022/12/28 05:02:17;;;;;;;32.93;31.00;;;;;;;4.62;100.00;100637.94;5031747;28;20432;-50
2022/12/28 05:04:45;;;;;;;32.93;31.10;;;;;;;4.62;100.00;100642.38;5031439;28;20855;-49
2022/12/28 05:07:12;;;;;;;33.83;31.40;;;;;;;4.62;100.00;100643.22;5031515;28;20449;-48
2022/12/28 05:09:40;;;;;;;33.50;31.50;;;;;;;4.62;100.00;100648.50;5031044;28;20468;-49
2022/12/28 05:12:08;;;;;;;33.10;30.97;;;;;;;4.62;100.00;100637.94;5031731;28;20811;-50
2022/12/28 05:14:35;;;;;;;32.83;31.00;;;;;;;4.63;100.00;100636.13;5031447;28;20478;-52
2022/12/28 05:17:05;;;;;;;33.47;31.17;;;;;;;4.63;100.00;100629.00;5031307;28;20579;-50
2022/12/28 05:19:33;;;;;;;35.13;32.70;;;;;;;4.65;100.00;100632.31;5031056;28;20459;-50
2022/12/28 05:22:00;;;;;;;33.20;31.30;;;;;;;4.64;100.00;100630.66;5031810;28;20466;-48
2022/12/28 05:24:28;;;;;;;33.13;31.13;;;;;;;4.65;100.00;100620.94;5031507;28;20444;-50
2022/12/28 05:26:56;;;;;;;32.63;30.83;;;;;;;4.66;100.00;100620.75;5023179;28;20476;-51
2022/12/28 05:29:24;;;;;;;33.20;31.20;;;;;;;4.65;100.00;100632.31;5023339;22;20863;-49
2022/12/28 05:31:52;;;;;;;34.90;32.47;;;;;;;4.67;100.00;100614.50;4988147;28;20434;-47
2022/12/28 05:34:21;;;;;;;34.87;32.57;;;;;;;4.64;100.00;100588.41;4988591;28;20525;-47
2022/12/28 05:36:48;;;;;;;34.33;32.20;;;;;;;4.66;100.00;100609.38;4988257;28;20478;-48
2022/12/28 05:39:16;;;;;;;33.13;31.10;;;;;;;4.68;100.00;100600.31;4987504;28;20942;-45
2022/12/28 05:41:43;;;;;;;33.30;31.20;;;;;;;4.71;100.00;100583.31;4988652;28;20437;-47
2022/12/28 05:44:11;;;;;;;32.13;30.30;;;;;;;4.72;100.00;100590.25;4988638;28;20438;-46
2022/12/28 05:46:39;;;;;;;32.70;30.70;;;;;;;4.74;100.00;100588.25;4988482;28;20430;-47
2022/12/28 05:49:08;;;;;;;32.60;30.60;;;;;;;4.76;100.00;100600.31;4988153;28;20465;-46
2022/12/28 05:51:37;;;;;;;31.80;29.90;;;;;;;4.77;100.00;100583.47;4988048;28;20430;-50
2022/12/28 05:54:06;;;;;;;33.17;31.17;;;;;;;4.78;100.00;100579.03;5004415;28;20422;-49
2022/12/28 05:56:35;;;;;;;32.57;30.57;;;;;;;4.81;100.00;100557.53;4988526;28;20506;-49
2022/12/28 05:59:05;;;;;;;33.03;30.90;;;;;;;4.80;100.00;100564.66;4992219;28;20483;-49
2022/12/28 06:01:36;;;;;;;33.87;31.70;;;;;;;4.78;100.00;100556.06;5009003;28;20468;-45
2022/12/28 06:04:06;;;;;;;33.53;31.43;;;;;;;4.80;100.00;100555.91;5007820;28;20842;-45
2022/12/28 06:06:34;;;;;;;34.47;32.20;;;;;;;4.85;100.00;100550.94;5007768;28;20977;-48
2022/12/28 06:09:04;;;;;;;33.77;31.97;;;;;;;4.86;100.00;100545.53;5007638;28;20476;-53
2022/12/28 06:11:32;;;;;;;35.27;33.30;;;;;;;4.87;100.00;100541.88;5008513;28;20429;-50
2022/12/28 06:14:02;;;;;;;35.20;33.00;;;;;;;4.90;100.00;100543.34;5010800;28;20429;-50
2022/12/28 06:16:31;;;;;;;32.30;30.40;;;;;;;4.95;100.00;100547.16;5011400;28;20478;-46
2022/12/28 06:19:03;;;;;;;32.07;30.27;;;;;;;5.00;100.00;100549.31;5010353;28;20495;-48
2022/12/28 06:21:32;;;;;;;33.10;31.00;;;;;;;5.06;100.00;100545.16;5011134;28;20433;-47
2022/12/28 06:24:01;;;;;;;32.13;30.23;;;;;;;5.08;100.00;100540.56;5010845;28;20429;-45
2022/12/28 06:26:32;;;;;;;31.80;30.00;;;;;;;5.12;100.00;100541.88;5011350;28;20440;-48
2022/12/28 06:29:01;;;;;;;32.47;30.57;;;;;;;5.11;100.00;100550.81;5010348;28;20480;-46
2022/12/28 06:31:31;;;;;;;32.97;30.93;;;;;;;5.14;100.00;100553.91;5010597;28;20495;-46
2022/12/28 06:34:00;;;;;;;32.63;30.83;;;;;;;5.16;100.00;100529.97;5011296;28;20983;-48
2022/12/28 06:36:30;;;;;;;32.83;31.00;;;;;;;5.18;100.00;100527.97;4990808;28;20842;-49
2022/12/28 06:38:59;;;;;;;33.40;31.50;;;;;;;5.19;100.00;100525.19;5000162;28;20450;-47
2022/12/28 06:41:28;;;;;;;31.90;30.20;;;;;;;5.23;100.00;100539.72;4986190;28;20442;-49
2022/12/28 06:43:57;;;;;;;31.83;30.13;;;;;;;5.23;100.00;100528.31;4991621;28;20445;-48
2022/12/28 06:46:27;;;;;;;32.20;30.40;;;;;;;5.24;100.00;100527.31;4990849;28;20435;-46
2022/12/28 06:48:55;;;;;;;32.70;30.73;;;;;;;5.23;100.00;100515.09;4990268;28;20450;-46
2022/12/28 06:51:25;;;;;;;33.47;31.47;;;;;;;5.27;100.00;100501.38;4991211;28;20434;-48
2022/12/28 06:53:54;;;;;;;29.97;28.40;;;;;;;5.29;100.00;100515.25;4991018;28;20970;-49
2022/12/28 06:56:23;;;;;;;30.63;29.03;;;;;;;5.31;100.00;100499.22;4990493;28;20813;-51
2022/12/28 06:58:52;;;;;;;30.93;29.33;;;;;;;5.32;100.00;100490.28;4990299;28;20476;-51
2022/12/28 07:01:32;;;;;;;30.97;29.27;;;;;;;5.36;100.00;100471.28;4990647;28;20795;-50
2022/12/28 07:04:01;;;;;;;31.20;29.60;;;;;;;5.36;100.00;100478.38;4993046;28;20453;-53
2022/12/28 07:06:30;;;;;;;30.70;28.80;;;;;;;5.37;100.00;100499.38;4991767;28;20489;-50
2022/12/28 07:08:59;;;;;;;31.97;30.27;;;;;;;5.38;100.00;100503.66;4990114;28;20956;-49
2022/12/28 07:11:28;;;;;;;30.63;29.13;;;;;;;5.40;100.00;100506.16;4990810;28;20441;-46
2022/12/28 07:13:56;;;;;;;31.20;29.50;;;;;;;5.42;100.00;100493.56;4990274;28;20434;-51
2022/12/28 07:16:28;;;;;;;30.50;28.90;;;;;;;5.43;100.00;100479.38;4990940;28;20832;-47
2022/12/28 07:18:57;;;;;;;30.40;28.90;;;;;;;5.46;100.00;100473.75;4990198;28;20537;-48
2022/12/28 07:21:26;;;;;;;30.83;29.23;;;;;;;5.50;100.00;100482.97;4991906;28;20430;-45
2022/12/28 07:23:55;;;;;;;30.27;28.70;;;;;;;5.53;100.00;100479.97;4989432;28;20441;-46
2022/12/28 07:26:24;;;;;;;30.80;29.30;;;;;;;5.56;100.00;100485.75;4990721;28;20518;-48
2022/12/28 07:28:54;;;;;;;31.50;29.87;;;;;;;5.55;100.00;100484.09;4989691;28;20472;-47
2022/12/28 07:31:23;;;;;;;31.47;29.60;;;;;;;5.57;100.00;100482.13;4990442;28;20441;-46
2022/12/28 07:33:54;;;;;;;30.40;29.00;;;;;;;5.62;100.00;100488.72;4990830;28;20460;-46
2022/12/28 07:36:25;;;;;;;30.67;29.07;;;;;;;5.62;100.00;100484.25;4992204;28;20419;-47
2022/12/28 07:38:52;;;;;;;31.20;29.60;;;;;;;5.66;100.00;100496.16;4992847;28;20457;-46
2022/12/28 07:41:22;;;;;;;30.50;29.00;;;;;;;5.69;100.00;100490.50;5010603;28;21247;-46
2022/12/28 07:43:50;;;;;;;29.60;28.10;;;;;;;5.71;100.00;100485.88;5011159;28;20433;-48
2022/12/28 07:46:20;;;;;;;31.13;29.53;;;;;;;5.77;100.00;100492.28;5009908;28;20425;-49
2022/12/28 07:48:48;;;;;;;30.77;29.27;;;;;;;5.81;100.00;100483.84;5008892;28;20974;-48
2022/12/28 07:51:18;;;;;;;31.33;29.73;;;;;;;5.82;100.00;100485.50;5006120;28;20456;-46
2022/12/28 07:53:49;;;;;;;32.37;30.67;;;;;;;5.86;100.00;100470.94;4993846;28;20437;-49
2022/12/28 07:56:18;;;;;;;31.27;29.67;;;;;;;5.86;100.00;100457.72;5001170;28;20433;-50
2022/12/28 07:58:49;;;;;;;31.50;29.90;;;;;;;5.89;100.00;100472.44;5009291;28;20452;-48
2022/12/28 08:01:17;;;;;;;31.80;30.07;;;;;;;5.93;100.00;100477.22;5009747;28;20452;-49
2022/12/28 08:03:45;;;;;;;31.10;29.50;;;;;;;5.92;100.00;100464.13;5010391;28;20433;-48
2022/12/28 08:06:14;;;;;;;32.40;30.50;;;;;;;5.94;100.00;100464.81;5008691;28;20536;-50
2022/12/28 08:08:44;;;;;;;30.73;29.13;;;;;;;5.97;100.00;100465.25;5008777;28;20452;-47
2022/12/28 08:11:15;;;;;;;31.43;29.73;;;;;;;5.98;100.00;100474.88;5009429;28;20417;-48
2022/12/28 08:13:45;;;;;;;31.57;29.77;;;;;;;6.01;100.00;100469.22;5009293;28;21138;-46
2022/12/28 08:16:17;;;;;;;30.50;29.00;;;;;;;6.02;100.00;100467.41;5008762;28;20838;-51
2022/12/28 08:18:45;;;;;;;30.07;28.57;;;;;;;6.07;100.00;100475.63;4995094;28;20486;-47
2022/12/28 08:21:15;;;;;;;30.00;28.50;;;;;;;6.07;100.00;100470.34;5004364;28;20546;-46
2022/12/28 08:23:43;;;;;;;30.27;28.77;;;;;;;6.10;100.00;100465.53;5000961;28;20861;-49
2022/12/28 08:26:15;;;;;;;30.30;28.80;;;;;;;6.15;100.00;100453.59;5010152;28;20516;-47
2022/12/28 08:28:45;;;;;;;30.90;29.30;;;;;;;6.17;100.00;100459.53;5008738;28;20487;-50
2022/12/28 08:31:15;;;;;;;30.73;29.10;;;;;;;6.19;100.00;100454.88;5008432;28;20440;-46
2022/12/28 08:33:43;;;;;;;29.20;27.70;;;;;;;6.24;100.00;100456.03;5008952;28;20492;-49
2022/12/28 08:36:11;;;;;;;29.70;28.20;;;;;;;6.28;100.00;100453.84;5008477;28;20439;-46
2022/12/28 08:38:39;;;;;;;30.83;29.23;;;;;;;6.29;100.00;100451.03;5020658;28;20476;-52
2022/12/28 08:41:11;;;;;;;29.50;27.90;;;;;;;6.34;100.00;100453.97;5008510;28;20472;-48
2022/12/28 08:43:40;;;;;;;29.80;28.10;;;;;;;6.38;100.00;100446.50;5008780;28;20421;-51
2022/12/28 08:46:11;;;;;;;28.57;26.97;;;;;;;6.38;100.00;100452.63;5008143;28;20437;-48
2022/12/28 08:48:39;;;;;;;29.20;27.80;;;;;;;6.42;100.00;100445.94;4999512;28;20473;-51
2022/12/28 08:51:10;;;;;;;28.13;26.70;;;;;;;6.45;100.00;100450.91;5006154;28;20437;-49
2022/12/28 08:53:38;;;;;;;28.47;27.07;;;;;;;6.48;100.00;100470.94;5026345;28;20450;-47
2022/12/28 08:56:09;;;;;;;30.00;27.90;;;;;;;6.50;100.00;100471.56;5014418;28;20432;-51
2022/12/28 08:58:37;;;;;;;29.60;28.20;;;;;;;6.57;100.00;100469.88;4995183;28;21036;-48
2022/12/28 09:01:11;;;;;;;29.80;28.40;;;;;;;6.60;100.00;100461.56;4991994;28;20453;-47
2022/12/28 09:03:41;;;;;;;28.93;27.53;;;;;;;6.68;100.00;100466.81;4992682;28;20517;-47
2022/12/28 09:06:11;;;;;;;28.50;27.20;;;;;;;6.76;100.00;100474.66;4998076;28;20862;-47
2022/12/28 09:08:40;;;;;;;28.27;27.03;;;;;;;6.79;100.00;100465.53;5003850;28;20442;-49
2022/12/28 09:11:12;;;;;;;29.23;27.73;;;;;;;6.85;100.00;100470.13;5008038;28;20500;-47
2022/12/28 09:13:40;;;;;;;28.67;27.37;;;;;;;6.85;100.00;100463.00;5008645;28;20432;-48
2022/12/28 09:16:11;;;;;;;29.20;27.90;;;;;;;6.88;100.00;100467.94;5023826;28;20951;-48
2022/12/28 09:18:40;;;;;;;29.20;27.80;;;;;;;6.88;100.00;100477.72;5008913;28;20488;-47
2022/12/28 09:21:12;;;;;;;28.40;27.20;;;;;;;6.91;100.00;100478.19;5019074;28;20459;-52
2022/12/28 09:23:40;;;;;;;28.10;26.90;;;;;;;6.97;100.00;100488.06;5013072;28;20444;-46
2022/12/28 09:26:09;;;;;;;30.07;28.70;;;;;;;6.95;100.00;100490.09;5021479;28;20440;-48
2022/12/28 09:28:37;;;;;;;29.40;28.10;;;;;;;7.00;100.00;100495.69;5009216;28;20511;-47
2022/12/28 09:31:06;;;;;;;29.50;28.20;;;;;;;6.98;100.00;100484.44;5023736;28;20470;-47
2022/12/28 09:36:43;;;;;;;30.10;28.80;;;;;;;7.07;100.00;100490.47;5011710;28;20441;-46
2022/12/28 09:39:12;;;;;;;28.80;27.40;;;;;;;7.09;100.00;100489.28;5015127;28;20465;-48
2022/12/28 09:41:46;;;;;;;29.03;27.63;;;;;;;7.12;100.00;100494.25;5004555;28;20435;-48
2022/12/28 09:44:50;;;;;;;29.10;27.70;;;;;;;7.18;100.00;100493.50;5016170;28;20460;-49
2022/12/28 09:47:25;;;;;;;28.70;27.27;;;;;;;7.21;100.00;100494.97;5016067;28;20441;-46
2022/12/28 09:50:05;;;;;;;29.03;27.63;;;;;;;7.28;100.00;100492.44;5012871;28;20464;-47
2022/12/28 09:52:35;;;;;;;29.00;27.60;;;;;;;7.32;100.00;100499.84;5014234;28;20771;-47
2022/12/28 09:55:12;;;;;;;29.53;27.93;;;;;;;7.34;100.00;100487.22;5014173;28;20868;-49
2022/12/28 09:57:44;;;;;;;29.00;27.60;;;;;;;7.33;100.00;100496.19;5014555;28;20845;-49
2022/12/28 10:00:17;;;;;;;29.60;28.10;;;;;;;7.33;100.00;100493.53;5013829;28;20468;-49
2022/12/28 10:02:49;;;;;;;29.70;28.10;;;;;;;7.41;100.00;100488.13;5014012;28;20779;-52
2022/12/28 10:05:20;;;;;;;28.90;27.60;;;;;;;7.45;100.00;100483.28;5013184;28;20459;-46
2022/12/28 10:07:48;;;;;;;29.77;28.37;;;;;;;7.42;100.00;100497.75;5012550;28;20899;-51
2022/12/28 10:10:18;;;;;;;29.27;27.97;;;;;;;7.44;100.00;100493.06;5012312;28;20468;-47
2022/12/28 10:12:47;;;;;;;30.27;28.67;;;;;;;7.44;100.00;100489.59;5011465;28;20433;-48
2022/12/28 10:15:15;;;;;;;30.60;29.00;;;;;;;7.53;100.00;100478.72;5012956;28;20432;-52
2022/12/28 10:17:44;;;;;;;31.20;29.77;;;;;;;7.56;100.00;100494.28;5013332;28;20475;-48
2022/12/28 10:20:18;;;;;;;30.00;28.60;;;;;;;7.64;100.00;100496.03;5012685;28;20468;-49
2022/12/28 10:22:50;;;;;;;29.87;28.37;;;;;;;7.63;100.00;100491.72;5012616;28;20519;-47
2022/12/28 10:25:22;;;;;;;29.67;28.13;;;;;;;7.63;100.00;100483.75;5012124;28;20437;-51
2022/12/28 10:27:50;;;;;;;30.93;29.33;;;;;;;7.62;100.00;100485.56;5012387;28;20938;-47
2022/12/28 10:30:22;;;;;;;30.50;29.00;;;;;;;7.61;100.00;100481.28;5012767;28;20460;-48
2022/12/28 10:32:53;;;;;;;30.83;29.20;;;;;;;7.61;100.00;100491.91;5012592;28;20437;-51
2022/12/28 10:35:42;;;;;;;30.33;28.80;;;;;;;7.63;100.00;100492.53;5012590;28;21003;-50
2022/12/28 10:38:21;;;;;;;29.67;28.13;;;;;;;7.65;100.00;100490.53;5024397;28;20475;-48
2022/12/28 10:40:56;;;;;;;29.47;27.90;;;;;;;7.69;100.00;100497.13;5014234;28;20465;-49
2022/12/28 10:43:28;;;;;;;30.17;28.57;;;;;;;7.72;100.00;100491.44;5012720;28;20456;-49
2022/12/28 10:45:58;;;;;;;28.10;26.80;;;;;;;7.67;100.00;100495.66;5011584;28;20949;-49
2022/12/28 10:48:29;;;;;;;30.00;28.60;;;;;;;7.75;100.00;100485.75;5010953;28;20448;-48
2022/12/28 10:51:01;;;;;;;29.43;28.13;;;;;;;7.76;100.00;100482.09;5011502;28;20499;-50
2022/12/28 10:53:31;;;;;;;29.43;28.00;;;;;;;7.80;100.00;100477.22;5011851;28;20436;-52
2022/12/28 10:56:05;;;;;;;28.83;27.43;;;;;;;7.83;100.00;100471.56;5012323;28;20429;-49
2022/12/28 10:58:34;;;;;;;29.00;27.50;;;;;;;7.90;100.00;100479.59;5011667;28;20503;-49
2022/12/28 11:01:05;;;;;;;29.33;27.90;;;;;;;7.92;100.00;100470.44;5011697;28;20527;-49
2022/12/28 11:04:04;;;;;;;28.30;26.80;;;;;;;7.92;100.00;100467.78;5012044;28;20472;-46
2022/12/28 11:06:35;;;;;;;29.43;27.70;;;;;;;7.99;100.00;100474.00;5012322;28;20978;-51
2022/12/28 11:09:15;;;;;;;29.20;27.80;;;;;;;8.01;100.00;100481.78;5011741;28;20461;-50
2022/12/28 11:11:45;;;;;;;29.67;28.17;;;;;;;8.02;100.00;100484.25;5012648;28;20439;-47
2022/12/28 11:14:24;;;;;;;29.90;28.23;;;;;;;8.03;100.00;100483.25;5012140;28;20854;-47
2022/12/28 11:16:52;;;;;;;30.20;28.80;;;;;;;8.03;100.00;100482.44;5011629;28;20433;-47
2022/12/28 11:19:20;;;;;;;30.20;28.80;;;;;;;8.05;100.00;100486.53;5011826;28;20536;-51
2022/12/28 11:21:50;;;;;;;29.40;27.93;;;;;;;8.07;100.00;100489.81;5011381;28;20437;-51
2022/12/28 11:24:19;;;;;;;29.87;28.03;;;;;;;8.07;100.00;100487.16;5011095;28;20433;-48
2022/12/28 11:26:49;;;;;;;30.37;28.87;;;;;;;8.06;100.00;100487.38;5011895;28;20969;-49
2022/12/28 11:29:19;;;;;;;29.90;28.50;;;;;;;8.12;100.00;100499.91;5011831;28;20469;-48
2022/12/28 11:31:50;;;;;;;29.70;28.27;;;;;;;8.12;100.00;100491.94;5011277;28;20444;-51
2022/12/28 11:34:23;;;;;;;30.00;28.30;;;;;;;8.15;100.00;100489.72;5011419;28;20437;-49
2022/12/28 11:36:52;;;;;;;29.50;28.10;;;;;;;8.12;100.00;100494.59;5008934;28;20432;-50
2022/12/28 11:39:32;;;;;;;30.20;28.50;;;;;;;8.20;100.00;100492.66;5022391;28;20980;-48
2022/12/28 11:42:01;;;;;;;30.00;28.60;;;;;;;8.18;100.00;100481.38;5031057;28;20793;-49
2022/12/28 11:44:51;;;;;;;29.60;28.10;;;;;;;8.24;100.00;100488.59;5030992;28;20432;-49
2022/12/28 11:47:31;;;;;;;29.50;28.10;;;;;;;8.29;100.00;100480.09;5030979;28;20431;-50
2022/12/28 11:50:33;;;;;;;30.07;28.53;;;;;;;8.30;100.00;100482.56;5030378;28;20476;-47
2022/12/28 11:53:03;;;;;;;29.93;28.43;;;;;;;8.23;100.00;100476.34;5029407;28;20451;-50
2022/12/28 11:55:49;;;;;;;29.70;28.20;;;;;;;8.32;100.00;100469.94;5030423;28;20435;-51
2022/12/28 11:58:43;;;;;;;30.03;28.40;;;;;;;8.38;100.00;100468.34;5031440;28;20458;-47